sensor_id;sensor_type;location;lat;lon;timestamp;P1;durP1;ratioP1;P2;durP2;ratioP2
49450;SDS011;35336;48.400;10.886;2023-07-22T00:00:05;3.50;;;1.10;;
49450;SDS011;35336;48.400;10.886;2023-07-22T00:00:21;4.05;;;1.30;;
49450;SDS011;35336;48.400;10.886;2023-07-22T00:00:38;3.40;;;1.50;;
49450;SDS011;35336;48.400;10.886;2023-07-22T00:00:54;3.53;;;1.38;;
49450;SDS011;35336;48.400;10.886;2023-07-22T00:01:11;2.65;;;1.20;;
49450;SDS011;35336;48.400;10.886;2023-07-22T00:01:26;4.82;;;1.10;;
49450;SDS011;35336;48.400;10.886;2023-07-22T00:01:42;4.60;;;1.20;;
49450;SDS011;35336;48.400;10.886;2023-07-22T00:02:02;1.88;;;1.30;;
49450;SDS011;35336;48.400;10.886;2023-07-22T00:02:18;2.00;;;1.20;;
49450;SDS011;35336;48.400;10.886;2023-07-22T00:02:35;2.28;;;1.20;;
49450;SDS011;35336;48.400;10.886;2023-07-22T00:02:50;1.90;;;1.20;;
49450;SDS011;35336;48.400;10.886;2023-07-22T00:03:08;3.72;;;1.33;;
49450;SDS011;35336;48.400;10.886;2023-07-22T00:03:23;5.50;;;1.50;;
49450;SDS011;35336;48.400;10.886;2023-07-22T00:03:39;3.50;;;1.40;;
49450;SDS011;35336;48.400;10.886;2023-07-22T00:03:54;3.85;;;1.40;;
49450;SDS011;35336;48.400;10.886;2023-07-22T00:04:09;4.17;;;1.77;;
49450;SDS011;35336;48.400;10.886;2023-07-22T00:04:25;2.53;;;1.60;;
49450;SDS011;35336;48.400;10.886;2023-07-22T00:04:41;2.42;;;1.60;;
49450;SDS011;35336;48.400;10.886;2023-07-22T00:04:58;1.88;;;1.35;;
49450;SDS011;35336;48.400;10.886;2023-07-22T00:05:14;2.40;;;1.30;;
49450;SDS011;35336;48.400;10.886;2023-07-22T00:05:29;5.13;;;1.50;;
49450;SDS011;35336;48.400;10.886;2023-07-22T00:05:45;4.40;;;1.37;;
49450;SDS011;35336;48.400;10.886;2023-07-22T00:06:04;1.70;;;1.30;;
49450;SDS011;35336;48.400;10.886;2023-07-22T00:06:19;1.90;;;1.40;;
49450;SDS011;35336;48.400;10.886;2023-07-22T00:06:36;3.20;;;1.48;;
49450;SDS011;35336;48.400;10.886;2023-07-22T00:06:52;2.53;;;1.23;;
49450;SDS011;35336;48.400;10.886;2023-07-22T00:07:07;2.10;;;1.30;;
49450;SDS011;35336;48.400;10.886;2023-07-22T00:07:22;2.03;;;1.33;;
49450;SDS011;35336;48.400;10.886;2023-07-22T00:07:40;1.50;;;1.20;;
49450;SDS011;35336;48.400;10.886;2023-07-22T00:07:55;2.42;;;1.30;;
49450;SDS011;35336;48.400;10.886;2023-07-22T00:08:11;3.67;;;1.30;;
49450;SDS011;35336;48.400;10.886;2023-07-22T00:08:26;4.13;;;1.30;;
49450;SDS011;35336;48.400;10.886;2023-07-22T00:08:49;1.95;;;1.30;;
49450;SDS011;35336;48.400;10.886;2023-07-22T00:09:05;2.15;;;1.40;;
49450;SDS011;35336;48.400;10.886;2023-07-22T00:09:20;1.40;;;1.20;;
49450;SDS011;35336;48.400;10.886;2023-07-22T00:09:36;2.60;;;1.40;;
49450;SDS011;35336;48.400;10.886;2023-07-22T00:09:51;3.13;;;1.70;;
49450;SDS011;35336;48.400;10.886;2023-07-22T00:10:09;2.97;;;1.50;;
49450;SDS011;35336;48.400;10.886;2023-07-22T00:10:25;2.75;;;1.13;;
49450;SDS011;35336;48.400;10.886;2023-07-22T00:10:43;2.28;;;1.25;;
49450;SDS011;35336;48.400;10.886;2023-07-22T00:10:58;2.00;;;1.30;;
49450;SDS011;35336;48.400;10.886;2023-07-22T00:11:16;1.92;;;1.20;;
49450;SDS011;35336;48.400;10.886;2023-07-22T00:11:36;3.42;;;1.38;;
49450;SDS011;35336;48.400;10.886;2023-07-22T00:11:51;4.72;;;1.55;;
49450;SDS011;35336;48.400;10.886;2023-07-22T00:12:06;4.53;;;1.43;;
49450;SDS011;35336;48.400;10.886;2023-07-22T00:12:22;4.13;;;1.33;;
49450;SDS011;35336;48.400;10.886;2023-07-22T00:12:40;2.90;;;1.20;;
49450;SDS011;35336;48.400;10.886;2023-07-22T00:12:57;3.08;;;1.40;;
49450;SDS011;35336;48.400;10.886;2023-07-22T00:13:13;6.00;;;1.58;;
49450;SDS011;35336;48.400;10.886;2023-07-22T00:13:28;6.63;;;1.50;;
49450;SDS011;35336;48.400;10.886;2023-07-22T00:13:44;5.80;;;1.43;;
49450;SDS011;35336;48.400;10.886;2023-07-22T00:13:59;4.60;;;1.40;;
49450;SDS011;35336;48.400;10.886;2023-07-22T00:14:14;3.63;;;1.50;;
49450;SDS011;35336;48.400;10.886;2023-07-22T00:14:32;2.60;;;1.30;;
49450;SDS011;35336;48.400;10.886;2023-07-22T00:14:47;2.20;;;1.33;;
49450;SDS011;35336;48.400;10.886;2023-07-22T00:15:03;2.47;;;1.37;;
49450;SDS011;35336;48.400;10.886;2023-07-22T00:15:18;2.22;;;1.17;;
49450;SDS011;35336;48.400;10.886;2023-07-22T00:15:34;2.37;;;1.20;;
49450;SDS011;35336;48.400;10.886;2023-07-22T00:15:49;3.40;;;1.30;;
49450;SDS011;35336;48.400;10.886;2023-07-22T00:16:07;3.40;;;1.37;;
49450;SDS011;35336;48.400;10.886;2023-07-22T00:16:22;1.92;;;1.25;;
49450;SDS011;35336;48.400;10.886;2023-07-22T00:16:37;1.40;;;1.20;;
49450;SDS011;35336;48.400;10.886;2023-07-22T00:16:53;1.40;;;1.23;;
49450;SDS011;35336;48.400;10.886;2023-07-22T00:17:08;2.70;;;1.20;;
49450;SDS011;35336;48.400;10.886;2023-07-22T00:17:23;3.50;;;1.20;;
49450;SDS011;35336;48.400;10.886;2023-07-22T00:17:41;3.17;;;1.20;;
49450;SDS011;35336;48.400;10.886;2023-07-22T00:17:59;2.83;;;1.40;;
49450;SDS011;35336;48.400;10.886;2023-07-22T00:18:19;7.22;;;1.50;;
49450;SDS011;35336;48.400;10.886;2023-07-22T00:18:34;7.90;;;1.30;;
49450;SDS011;35336;48.400;10.886;2023-07-22T00:18:49;4.00;;;1.40;;
49450;SDS011;35336;48.400;10.886;2023-07-22T00:19:05;3.20;;;1.47;;
49450;SDS011;35336;48.400;10.886;2023-07-22T00:19:22;3.33;;;1.20;;
49450;SDS011;35336;48.400;10.886;2023-07-22T00:19:38;6.90;;;1.50;;
49450;SDS011;35336;48.400;10.886;2023-07-22T00:19:55;5.20;;;1.50;;
49450;SDS011;35336;48.400;10.886;2023-07-22T00:20:10;2.47;;;1.30;;
49450;SDS011;35336;48.400;10.886;2023-07-22T00:20:28;2.90;;;1.35;;
49450;SDS011;35336;48.400;10.886;2023-07-22T00:20:43;3.93;;;1.60;;
49450;SDS011;35336;48.400;10.886;2023-07-22T00:20:59;3.53;;;1.50;;
49450;SDS011;35336;48.400;10.886;2023-07-22T00:21:16;2.90;;;1.40;;
49450;SDS011;35336;48.400;10.886;2023-07-22T00:21:34;3.63;;;1.23;;
49450;SDS011;35336;48.400;10.886;2023-07-22T00:21:49;3.90;;;1.20;;
49450;SDS011;35336;48.400;10.886;2023-07-22T00:22:04;2.80;;;1.20;;
49450;SDS011;35336;48.400;10.886;2023-07-22T00:22:22;3.67;;;1.50;;
49450;SDS011;35336;48.400;10.886;2023-07-22T00:22:38;5.28;;;1.48;;
49450;SDS011;35336;48.400;10.886;2023-07-22T00:22:55;2.97;;;1.40;;
49450;SDS011;35336;48.400;10.886;2023-07-22T00:23:11;1.80;;;1.30;;
49450;SDS011;35336;48.400;10.886;2023-07-22T00:23:26;2.03;;;1.17;;
49450;SDS011;35336;48.400;10.886;2023-07-22T00:23:41;2.10;;;1.30;;
49450;SDS011;35336;48.400;10.886;2023-07-22T00:23:57;3.13;;;1.30;;
49450;SDS011;35336;48.400;10.886;2023-07-22T00:24:12;3.78;;;1.40;;
49450;SDS011;35336;48.400;10.886;2023-07-22T00:24:27;3.30;;;1.37;;
49450;SDS011;35336;48.400;10.886;2023-07-22T00:24:43;2.83;;;1.30;;
49450;SDS011;35336;48.400;10.886;2023-07-22T00:24:58;4.13;;;1.42;;
49450;SDS011;35336;48.400;10.886;2023-07-22T00:25:13;5.37;;;1.60;;
49450;SDS011;35336;48.400;10.886;2023-07-22T00:25:31;4.00;;;1.55;;
49450;SDS011;35336;48.400;10.886;2023-07-22T00:25:48;2.40;;;1.20;;
49450;SDS011;35336;48.400;10.886;2023-07-22T00:26:04;6.85;;;1.33;;
49450;SDS011;35336;48.400;10.886;2023-07-22T00:26:19;8.93;;;1.50;;
49450;SDS011;35336;48.400;10.886;2023-07-22T00:26:37;6.05;;;1.40;;
49450;SDS011;35336;48.400;10.886;2023-07-22T00:26:52;4.00;;;1.30;;
49450;SDS011;35336;48.400;10.886;2023-07-22T00:27:09;2.83;;;1.50;;
49450;SDS011;35336;48.400;10.886;2023-07-22T00:27:25;3.42;;;1.52;;
49450;SDS011;35336;48.400;10.886;2023-07-22T00:27:41;4.80;;;1.35;;
49450;SDS011;35336;48.400;10.886;2023-07-22T00:27:57;3.78;;;1.40;;
49450;SDS011;35336;48.400;10.886;2023-07-22T00:28:15;3.45;;;1.50;;
49450;SDS011;35336;48.400;10.886;2023-07-22T00:28:33;3.20;;;1.30;;
49450;SDS011;35336;48.400;10.886;2023-07-22T00:28:48;1.48;;;1.20;;
49450;SDS011;35336;48.400;10.886;2023-07-22T00:29:03;5.07;;;1.10;;
49450;SDS011;35336;48.400;10.886;2023-07-22T00:29:19;6.30;;;1.10;;
49450;SDS011;35336;48.400;10.886;2023-07-22T00:29:36;4.63;;;1.20;;
49450;SDS011;35336;48.400;10.886;2023-07-22T00:29:51;5.53;;;1.50;;
49450;SDS011;35336;48.400;10.886;2023-07-22T00:30:09;3.97;;;1.38;;
49450;SDS011;35336;48.400;10.886;2023-07-22T00:30:24;3.60;;;1.27;;
49450;SDS011;35336;48.400;10.886;2023-07-22T00:30:42;3.42;;;1.50;;
49450;SDS011;35336;48.400;10.886;2023-07-22T00:30:57;3.42;;;1.50;;
49450;SDS011;35336;48.400;10.886;2023-07-22T00:31:16;4.82;;;1.73;;
49450;SDS011;35336;48.400;10.886;2023-07-22T00:31:34;3.87;;;1.50;;
49450;SDS011;35336;48.400;10.886;2023-07-22T00:31:50;2.95;;;1.40;;
49450;SDS011;35336;48.400;10.886;2023-07-22T00:32:05;2.13;;;1.23;;
49450;SDS011;35336;48.400;10.886;2023-07-22T00:32:22;1.55;;;1.13;;
49450;SDS011;35336;48.400;10.886;2023-07-22T00:32:37;2.83;;;1.10;;
49450;SDS011;35336;48.400;10.886;2023-07-22T00:32:57;3.03;;;1.25;;
49450;SDS011;35336;48.400;10.886;2023-07-22T00:33:13;2.10;;;1.30;;
49450;SDS011;35336;48.400;10.886;2023-07-22T00:33:28;3.35;;;1.30;;
49450;SDS011;35336;48.400;10.886;2023-07-22T00:33:43;3.53;;;1.30;;
49450;SDS011;35336;48.400;10.886;2023-07-22T00:33:59;3.63;;;1.27;;
49450;SDS011;35336;48.400;10.886;2023-07-22T00:34:16;4.97;;;1.25;;
49450;SDS011;35336;48.400;10.886;2023-07-22T00:34:32;2.88;;;1.27;;
49450;SDS011;35336;48.400;10.886;2023-07-22T00:34:47;1.57;;;1.30;;
49450;SDS011;35336;48.400;10.886;2023-07-22T00:35:03;1.95;;;1.25;;
49450;SDS011;35336;48.400;10.886;2023-07-22T00:35:19;4.90;;;1.40;;
49450;SDS011;35336;48.400;10.886;2023-07-22T00:35:35;3.00;;;1.27;;
49450;SDS011;35336;48.400;10.886;2023-07-22T00:35:51;2.10;;;1.20;;
49450;SDS011;35336;48.400;10.886;2023-07-22T00:36:08;2.67;;;1.30;;
49450;SDS011;35336;48.400;10.886;2023-07-22T00:36:25;3.70;;;1.30;;
49450;SDS011;35336;48.400;10.886;2023-07-22T00:36:40;2.45;;;1.10;;
49450;SDS011;35336;48.400;10.886;2023-07-22T00:36:58;1.57;;;1.20;;
49450;SDS011;35336;48.400;10.886;2023-07-22T00:37:13;2.10;;;1.30;;
49450;SDS011;35336;48.400;10.886;2023-07-22T00:37:31;2.40;;;1.20;;
49450;SDS011;35336;48.400;10.886;2023-07-22T00:37:46;3.25;;;1.30;;
49450;SDS011;35336;48.400;10.886;2023-07-22T00:38:02;2.60;;;1.30;;
49450;SDS011;35336;48.400;10.886;2023-07-22T00:38:19;1.80;;;1.20;;
49450;SDS011;35336;48.400;10.886;2023-07-22T00:38:35;1.77;;;1.17;;
49450;SDS011;35336;48.400;10.886;2023-07-22T00:38:50;1.63;;;1.10;;
49450;SDS011;35336;48.400;10.886;2023-07-22T00:39:05;1.60;;;1.17;;
49450;SDS011;35336;48.400;10.886;2023-07-22T00:39:21;1.40;;;1.27;;
49450;SDS011;35336;48.400;10.886;2023-07-22T00:39:36;2.17;;;1.40;;
49450;SDS011;35336;48.400;10.886;2023-07-22T00:39:51;2.10;;;1.25;;
49450;SDS011;35336;48.400;10.886;2023-07-22T00:40:07;2.20;;;1.17;;
49450;SDS011;35336;48.400;10.886;2023-07-22T00:40:25;3.90;;;1.50;;
49450;SDS011;35336;48.400;10.886;2023-07-22T00:40:41;3.40;;;1.50;;
49450;SDS011;35336;48.400;10.886;2023-07-22T00:40:56;2.43;;;1.43;;
49450;SDS011;35336;48.400;10.886;2023-07-22T00:41:11;4.30;;;1.38;;
49450;SDS011;35336;48.400;10.886;2023-07-22T00:41:27;3.47;;;1.40;;
49450;SDS011;35336;48.400;10.886;2023-07-22T00:41:45;2.80;;;1.52;;
49450;SDS011;35336;48.400;10.886;2023-07-22T00:42:00;3.47;;;1.40;;
49450;SDS011;35336;48.400;10.886;2023-07-22T00:42:18;2.37;;;1.30;;
49450;SDS011;35336;48.400;10.886;2023-07-22T00:42:33;2.78;;;1.50;;
49450;SDS011;35336;48.400;10.886;2023-07-22T00:42:48;4.63;;;1.60;;
49450;SDS011;35336;48.400;10.886;2023-07-22T00:43:07;4.07;;;1.40;;
49450;SDS011;35336;48.400;10.886;2023-07-22T00:43:24;2.55;;;1.30;;
49450;SDS011;35336;48.400;10.886;2023-07-22T00:43:42;2.57;;;1.30;;
49450;SDS011;35336;48.400;10.886;2023-07-22T00:43:57;2.53;;;1.33;;
49450;SDS011;35336;48.400;10.886;2023-07-22T00:44:13;2.30;;;1.23;;
49450;SDS011;35336;48.400;10.886;2023-07-22T00:44:30;2.13;;;1.38;;
49450;SDS011;35336;48.400;10.886;2023-07-22T00:44:45;2.00;;;1.40;;
49450;SDS011;35336;48.400;10.886;2023-07-22T00:45:01;2.00;;;1.40;;
49450;SDS011;35336;48.400;10.886;2023-07-22T00:45:16;1.85;;;1.30;;
49450;SDS011;35336;48.400;10.886;2023-07-22T00:45:34;4.73;;;1.90;;
49450;SDS011;35336;48.400;10.886;2023-07-22T00:45:49;5.18;;;2.00;;
49450;SDS011;35336;48.400;10.886;2023-07-22T00:46:06;2.67;;;1.45;;
49450;SDS011;35336;48.400;10.886;2023-07-22T00:46:24;2.47;;;1.40;;
49450;SDS011;35336;48.400;10.886;2023-07-22T00:46:44;1.45;;;1.30;;
49450;SDS011;35336;48.400;10.886;2023-07-22T00:47:02;3.00;;;1.42;;
49450;SDS011;35336;48.400;10.886;2023-07-22T00:47:19;4.50;;;1.60;;
49450;SDS011;35336;48.400;10.886;2023-07-22T00:47:35;3.33;;;1.50;;
49450;SDS011;35336;48.400;10.886;2023-07-22T00:47:51;3.22;;;1.40;;
49450;SDS011;35336;48.400;10.886;2023-07-22T00:48:10;2.47;;;1.40;;
49450;SDS011;35336;48.400;10.886;2023-07-22T00:48:29;1.80;;;1.40;;
49450;SDS011;35336;48.400;10.886;2023-07-22T00:48:45;1.73;;;1.20;;
49450;SDS011;35336;48.400;10.886;2023-07-22T00:49:03;2.97;;;1.20;;
49450;SDS011;35336;48.400;10.886;2023-07-22T00:49:23;4.60;;;1.50;;
49450;SDS011;35336;48.400;10.886;2023-07-22T00:49:41;2.80;;;1.38;;
49450;SDS011;35336;48.400;10.886;2023-07-22T00:49:56;2.13;;;1.17;;
49450;SDS011;35336;48.400;10.886;2023-07-22T00:50:14;4.30;;;1.40;;
49450;SDS011;35336;48.400;10.886;2023-07-22T00:50:32;5.10;;;1.50;;
49450;SDS011;35336;48.400;10.886;2023-07-22T00:50:50;4.60;;;1.48;;
49450;SDS011;35336;48.400;10.886;2023-07-22T00:51:05;2.67;;;1.40;;
49450;SDS011;35336;48.400;10.886;2023-07-22T00:51:23;3.25;;;1.30;;
49450;SDS011;35336;48.400;10.886;2023-07-22T00:51:38;3.35;;;1.33;;
49450;SDS011;35336;48.400;10.886;2023-07-22T00:51:54;4.47;;;1.43;;
49450;SDS011;35336;48.400;10.886;2023-07-22T00:52:15;4.43;;;1.52;;
49450;SDS011;35336;48.400;10.886;2023-07-22T00:52:30;4.20;;;1.50;;
49450;SDS011;35336;48.400;10.886;2023-07-22T00:52:46;4.47;;;1.63;;
49450;SDS011;35336;48.400;10.886;2023-07-22T00:53:01;3.63;;;1.60;;
49450;SDS011;35336;48.400;10.886;2023-07-22T00:53:16;3.13;;;1.25;;
49450;SDS011;35336;48.400;10.886;2023-07-22T00:53:32;2.53;;;1.30;;
49450;SDS011;35336;48.400;10.886;2023-07-22T00:53:47;2.73;;;1.50;;
49450;SDS011;35336;48.400;10.886;2023-07-22T00:54:02;2.00;;;1.40;;
49450;SDS011;35336;48.400;10.886;2023-07-22T00:54:18;2.00;;;1.40;;
49450;SDS011;35336;48.400;10.886;2023-07-22T00:54:33;2.45;;;1.67;;
49450;SDS011;35336;48.400;10.886;2023-07-22T00:54:53;2.25;;;1.38;;
49450;SDS011;35336;48.400;10.886;2023-07-22T00:55:09;2.27;;;1.30;;
49450;SDS011;35336;48.400;10.886;2023-07-22T00:55:25;7.13;;;1.60;;
49450;SDS011;35336;48.400;10.886;2023-07-22T00:55:40;6.55;;;1.58;;
49450;SDS011;35336;48.400;10.886;2023-07-22T00:55:56;2.28;;;1.40;;
49450;SDS011;35336;48.400;10.886;2023-07-22T00:56:18;1.75;;;1.20;;
49450;SDS011;35336;48.400;10.886;2023-07-22T00:56:36;5.55;;;1.52;;
49450;SDS011;35336;48.400;10.886;2023-07-22T00:56:51;6.40;;;1.63;;
49450;SDS011;35336;48.400;10.886;2023-07-22T00:57:09;5.30;;;1.58;;
49450;SDS011;35336;48.400;10.886;2023-07-22T00:57:24;4.30;;;1.47;;
49450;SDS011;35336;48.400;10.886;2023-07-22T00:57:44;8.82;;;1.70;;
49450;SDS011;35336;48.400;10.886;2023-07-22T00:57:59;4.60;;;1.52;;
49450;SDS011;35336;48.400;10.886;2023-07-22T00:58:17;2.37;;;1.37;;
49450;SDS011;35336;48.400;10.886;2023-07-22T00:58:35;2.25;;;1.58;;
49450;SDS011;35336;48.400;10.886;2023-07-22T00:58:51;2.58;;;1.60;;
49450;SDS011;35336;48.400;10.886;2023-07-22T00:59:09;3.45;;;1.95;;
49450;SDS011;35336;48.400;10.886;2023-07-22T00:59:24;3.13;;;1.70;;
49450;SDS011;35336;48.400;10.886;2023-07-22T00:59:42;2.03;;;1.50;;
49450;SDS011;35336;48.400;10.886;2023-07-22T00:59:58;2.33;;;1.58;;
49450;SDS011;35336;48.400;10.886;2023-07-22T01:00:13;3.45;;;1.33;;
49450;SDS011;35336;48.400;10.886;2023-07-22T01:00:29;3.47;;;1.33;;
49450;SDS011;35336;48.400;10.886;2023-07-22T01:00:49;2.67;;;1.30;;
49450;SDS011;35336;48.400;10.886;2023-07-22T01:01:04;3.17;;;1.30;;
49450;SDS011;35336;48.400;10.886;2023-07-22T01:01:22;2.20;;;1.25;;
49450;SDS011;35336;48.400;10.886;2023-07-22T01:01:37;1.63;;;1.30;;
49450;SDS011;35336;48.400;10.886;2023-07-22T01:01:52;2.67;;;1.50;;
49450;SDS011;35336;48.400;10.886;2023-07-22T01:02:10;2.83;;;1.50;;
49450;SDS011;35336;48.400;10.886;2023-07-22T01:02:25;4.32;;;1.67;;
49450;SDS011;35336;48.400;10.886;2023-07-22T01:02:41;5.20;;;1.80;;
49450;SDS011;35336;48.400;10.886;2023-07-22T01:02:57;4.30;;;1.48;;
49450;SDS011;35336;48.400;10.886;2023-07-22T01:03:13;3.10;;;1.25;;
49450;SDS011;35336;48.400;10.886;2023-07-22T01:03:29;2.83;;;1.23;;
49450;SDS011;35336;48.400;10.886;2023-07-22T01:03:44;4.13;;;1.40;;
49450;SDS011;35336;48.400;10.886;2023-07-22T01:04:01;1.75;;;1.50;;
49450;SDS011;35336;48.400;10.886;2023-07-22T01:04:19;3.88;;;1.65;;
49450;SDS011;35336;48.400;10.886;2023-07-22T01:04:38;4.47;;;1.30;;
49450;SDS011;35336;48.400;10.886;2023-07-22T01:04:53;2.50;;;1.40;;
49450;SDS011;35336;48.400;10.886;2023-07-22T01:05:09;3.33;;;1.60;;
49450;SDS011;35336;48.400;10.886;2023-07-22T01:05:26;3.67;;;1.40;;
49450;SDS011;35336;48.400;10.886;2023-07-22T01:05:45;3.40;;;1.48;;
49450;SDS011;35336;48.400;10.886;2023-07-22T01:06:01;4.50;;;1.60;;
49450;SDS011;35336;48.400;10.886;2023-07-22T01:06:17;2.53;;;1.40;;
49450;SDS011;35336;48.400;10.886;2023-07-22T01:06:34;2.17;;;1.35;;
49450;SDS011;35336;48.400;10.886;2023-07-22T01:06:53;1.92;;;1.40;;
49450;SDS011;35336;48.400;10.886;2023-07-22T01:07:12;1.75;;;1.20;;
49450;SDS011;35336;48.400;10.886;2023-07-22T01:07:30;2.63;;;1.35;;
49450;SDS011;35336;48.400;10.886;2023-07-22T01:07:46;2.72;;;1.50;;
49450;SDS011;35336;48.400;10.886;2023-07-22T01:08:01;2.87;;;1.37;;
49450;SDS011;35336;48.400;10.886;2023-07-22T01:08:17;3.00;;;1.50;;
49450;SDS011;35336;48.400;10.886;2023-07-22T01:08:32;2.30;;;1.60;;
49450;SDS011;35336;48.400;10.886;2023-07-22T01:08:50;2.03;;;1.33;;
49450;SDS011;35336;48.400;10.886;2023-07-22T01:09:06;2.60;;;1.40;;
49450;SDS011;35336;48.400;10.886;2023-07-22T01:09:21;2.43;;;1.40;;
49450;SDS011;35336;48.400;10.886;2023-07-22T01:09:37;1.85;;;1.25;;
49450;SDS011;35336;48.400;10.886;2023-07-22T01:09:56;1.58;;;1.33;;
49450;SDS011;35336;48.400;10.886;2023-07-22T01:10:12;4.05;;;1.50;;
49450;SDS011;35336;48.400;10.886;2023-07-22T01:10:31;4.53;;;1.65;;
49450;SDS011;35336;48.400;10.886;2023-07-22T01:10:46;3.63;;;1.80;;
49450;SDS011;35336;48.400;10.886;2023-07-22T01:11:01;2.63;;;1.67;;
49450;SDS011;35336;48.400;10.886;2023-07-22T01:11:17;3.03;;;1.40;;
49450;SDS011;35336;48.400;10.886;2023-07-22T01:11:35;2.65;;;1.50;;
49450;SDS011;35336;48.400;10.886;2023-07-22T01:11:51;3.72;;;1.60;;
49450;SDS011;35336;48.400;10.886;2023-07-22T01:12:06;5.20;;;1.50;;
49450;SDS011;35336;48.400;10.886;2023-07-22T01:12:27;2.72;;;1.50;;
49450;SDS011;35336;48.400;10.886;2023-07-22T01:12:43;2.53;;;1.67;;
49450;SDS011;35336;48.400;10.886;2023-07-22T01:12:59;3.85;;;1.90;;
49450;SDS011;35336;48.400;10.886;2023-07-22T01:13:14;4.13;;;1.80;;
49450;SDS011;35336;48.400;10.886;2023-07-22T01:13:30;3.00;;;1.60;;
49450;SDS011;35336;48.400;10.886;2023-07-22T01:13:47;4.20;;;1.50;;
49450;SDS011;35336;48.400;10.886;2023-07-22T01:14:02;5.65;;;1.70;;
49450;SDS011;35336;48.400;10.886;2023-07-22T01:14:18;3.55;;;1.65;;
49450;SDS011;35336;48.400;10.886;2023-07-22T01:14:33;2.77;;;1.47;;
49450;SDS011;35336;48.400;10.886;2023-07-22T01:14:49;3.58;;;1.50;;
49450;SDS011;35336;48.400;10.886;2023-07-22T01:15:07;2.85;;;1.70;;
49450;SDS011;35336;48.400;10.886;2023-07-22T01:15:23;2.83;;;1.67;;
49450;SDS011;35336;48.400;10.886;2023-07-22T01:15:39;4.72;;;1.77;;
49450;SDS011;35336;48.400;10.886;2023-07-22T01:15:56;4.00;;;1.70;;
49450;SDS011;35336;48.400;10.886;2023-07-22T01:16:11;2.50;;;1.50;;
49450;SDS011;35336;48.400;10.886;2023-07-22T01:16:27;3.60;;;1.50;;
49450;SDS011;35336;48.400;10.886;2023-07-22T01:16:45;3.20;;;1.58;;
49450;SDS011;35336;48.400;10.886;2023-07-22T01:17:04;2.97;;;1.50;;
49450;SDS011;35336;48.400;10.886;2023-07-22T01:17:22;3.83;;;1.65;;
49450;SDS011;35336;48.400;10.886;2023-07-22T01:17:37;4.70;;;1.88;;
49450;SDS011;35336;48.400;10.886;2023-07-22T01:17:55;1.80;;;1.52;;
49450;SDS011;35336;48.400;10.886;2023-07-22T01:18:11;3.60;;;1.50;;
49450;SDS011;35336;48.400;10.886;2023-07-22T01:18:29;4.18;;;1.40;;
49450;SDS011;35336;48.400;10.886;2023-07-22T01:18:46;3.35;;;1.60;;
49450;SDS011;35336;48.400;10.886;2023-07-22T01:19:04;4.60;;;1.60;;
49450;SDS011;35336;48.400;10.886;2023-07-22T01:19:20;3.25;;;1.60;;
49450;SDS011;35336;48.400;10.886;2023-07-22T01:19:36;2.72;;;1.55;;
49450;SDS011;35336;48.400;10.886;2023-07-22T01:19:51;3.20;;;1.40;;
49450;SDS011;35336;48.400;10.886;2023-07-22T01:20:07;3.00;;;1.50;;
49450;SDS011;35336;48.400;10.886;2023-07-22T01:20:28;2.65;;;1.50;;
49450;SDS011;35336;48.400;10.886;2023-07-22T01:20:44;2.50;;;1.40;;
49450;SDS011;35336;48.400;10.886;2023-07-22T01:21:03;2.70;;;1.52;;
49450;SDS011;35336;48.400;10.886;2023-07-22T01:21:23;3.53;;;1.77;;
49450;SDS011;35336;48.400;10.886;2023-07-22T01:21:42;2.55;;;1.45;;
49450;SDS011;35336;48.400;10.886;2023-07-22T01:22:00;2.87;;;1.47;;
49450;SDS011;35336;48.400;10.886;2023-07-22T01:22:17;3.30;;;1.63;;
49450;SDS011;35336;48.400;10.886;2023-07-22T01:22:33;3.00;;;1.45;;
49450;SDS011;35336;48.400;10.886;2023-07-22T01:22:52;3.03;;;1.50;;
49450;SDS011;35336;48.400;10.886;2023-07-22T01:23:07;3.00;;;1.55;;
49450;SDS011;35336;48.400;10.886;2023-07-22T01:23:22;3.17;;;1.52;;
49450;SDS011;35336;48.400;10.886;2023-07-22T01:23:38;3.10;;;1.50;;
49450;SDS011;35336;48.400;10.886;2023-07-22T01:23:56;3.72;;;1.50;;
49450;SDS011;35336;48.400;10.886;2023-07-22T01:24:12;3.42;;;1.63;;
49450;SDS011;35336;48.400;10.886;2023-07-22T01:24:29;3.83;;;1.65;;
49450;SDS011;35336;48.400;10.886;2023-07-22T01:24:45;2.33;;;1.38;;
49450;SDS011;35336;48.400;10.886;2023-07-22T01:25:00;2.00;;;1.40;;
49450;SDS011;35336;48.400;10.886;2023-07-22T01:25:16;2.22;;;1.58;;
49450;SDS011;35336;48.400;10.886;2023-07-22T01:25:31;1.93;;;1.40;;
49450;SDS011;35336;48.400;10.886;2023-07-22T01:25:49;3.80;;;1.40;;
49450;SDS011;35336;48.400;10.886;2023-07-22T01:26:05;4.70;;;1.60;;
49450;SDS011;35336;48.400;10.886;2023-07-22T01:26:22;4.05;;;1.67;;
49450;SDS011;35336;48.400;10.886;2023-07-22T01:26:40;3.78;;;1.60;;
49450;SDS011;35336;48.400;10.886;2023-07-22T01:26:55;3.30;;;1.53;;
49450;SDS011;35336;48.400;10.886;2023-07-22T01:27:11;3.08;;;1.42;;
49450;SDS011;35336;48.400;10.886;2023-07-22T01:27:27;3.13;;;1.35;;
49450;SDS011;35336;48.400;10.886;2023-07-22T01:27:43;3.60;;;1.40;;
49450;SDS011;35336;48.400;10.886;2023-07-22T01:28:01;5.10;;;1.42;;
49450;SDS011;35336;48.400;10.886;2023-07-22T01:28:23;2.08;;;1.30;;
49450;SDS011;35336;48.400;10.886;2023-07-22T01:28:41;2.53;;;1.50;;
49450;SDS011;35336;48.400;10.886;2023-07-22T01:29:03;2.40;;;1.50;;
49450;SDS011;35336;48.400;10.886;2023-07-22T01:29:21;3.53;;;1.55;;
49450;SDS011;35336;48.400;10.886;2023-07-22T01:29:40;2.00;;;1.60;;
49450;SDS011;35336;48.400;10.886;2023-07-22T01:29:55;2.13;;;1.37;;
49450;SDS011;35336;48.400;10.886;2023-07-22T01:30:11;2.77;;;1.33;;
49450;SDS011;35336;48.400;10.886;2023-07-22T01:30:26;4.78;;;1.58;;
49450;SDS011;35336;48.400;10.886;2023-07-22T01:30:41;4.00;;;1.50;;
49450;SDS011;35336;48.400;10.886;2023-07-22T01:30:59;4.15;;;1.50;;
49450;SDS011;35336;48.400;10.886;2023-07-22T01:31:14;4.60;;;1.60;;
49450;SDS011;35336;48.400;10.886;2023-07-22T01:31:29;3.73;;;1.70;;
49450;SDS011;35336;48.400;10.886;2023-07-22T01:31:47;4.43;;;1.73;;
49450;SDS011;35336;48.400;10.886;2023-07-22T01:32:05;5.32;;;1.63;;
49450;SDS011;35336;48.400;10.886;2023-07-22T01:32:21;3.47;;;1.50;;
49450;SDS011;35336;48.400;10.886;2023-07-22T01:32:36;2.10;;;1.60;;
49450;SDS011;35336;48.400;10.886;2023-07-22T01:32:51;2.10;;;1.70;;
49450;SDS011;35336;48.400;10.886;2023-07-22T01:33:09;1.70;;;1.60;;
49450;SDS011;35336;48.400;10.886;2023-07-22T01:33:24;2.10;;;1.50;;
49450;SDS011;35336;48.400;10.886;2023-07-22T01:33:42;4.23;;;1.50;;
49450;SDS011;35336;48.400;10.886;2023-07-22T01:33:57;4.07;;;1.52;;
49450;SDS011;35336;48.400;10.886;2023-07-22T01:34:14;3.22;;;1.70;;
49450;SDS011;35336;48.400;10.886;2023-07-22T01:34:30;3.90;;;1.57;;
49450;SDS011;35336;48.400;10.886;2023-07-22T01:34:47;6.18;;;1.63;;
49450;SDS011;35336;48.400;10.886;2023-07-22T01:35:02;3.57;;;1.60;;
49450;SDS011;35336;48.400;10.886;2023-07-22T01:35:20;2.67;;;1.50;;
49450;SDS011;35336;48.400;10.886;2023-07-22T01:35:36;2.10;;;1.52;;
49450;SDS011;35336;48.400;10.886;2023-07-22T01:35:53;3.58;;;1.67;;
49450;SDS011;35336;48.400;10.886;2023-07-22T01:36:11;4.25;;;1.60;;
49450;SDS011;35336;48.400;10.886;2023-07-22T01:36:26;5.00;;;2.20;;
49450;SDS011;35336;48.400;10.886;2023-07-22T01:36:41;5.50;;;2.47;;
49450;SDS011;35336;48.400;10.886;2023-07-22T01:36:57;3.80;;;2.07;;
49450;SDS011;35336;48.400;10.886;2023-07-22T01:37:14;4.47;;;2.00;;
49450;SDS011;35336;48.400;10.886;2023-07-22T01:37:30;3.58;;;1.40;;
49450;SDS011;35336;48.400;10.886;2023-07-22T01:37:45;3.97;;;1.53;;